Flight Track Log - Related Links

Times and Time Zones

All times are in EDT time to prevent confusion due to time zone crossing. See the UAL4236 flight status page for this flight to view local times or setup timezone preferences in your user account.

Time Position Orientation Groundspeed Altitude Reporting Facility
EDT Latitude Longitude Course Direction KTS MPH feet Rate Location/Type
Sat 12:29:45 PM 31.8006 -106.3233 92° East 175 201 5,500  Level Albuquerque Center
Sat 12:30:01 PM 31.7997 -106.3092 94° East 192 221 5,800 1,500 Climbing Albuquerque Center
Sat 12:30:45 PM 31.7939 -106.2400 96° East 265 305 7,000 1,258 Climbing Albuquerque Center
Sat 12:31:03 PM 31.7933 -106.2303 94° East 244 281 7,100 1,425 Climbing Albuquerque Center
Sat 12:32:00 PM 31.7367 -105.8395 96° East  Level FlightAware Approximate
Sat 12:32:05 PM 31.7822 -106.1350 98° East 292 336 8,900  Level Albuquerque Center
Sat 12:33:00 PM 31.7201 -105.7073 100° East  Level FlightAware Approximate
Sat 12:33:07 PM 31.7678 -106.0100 98° East 320 368 11,100  Level Albuquerque Center
Sat 12:34:00 PM 31.7068 -105.5747 96° East  Level FlightAware Approximate
Sat 12:34:09 PM 31.7533 -105.8894 98° East 369 425 11,600  Level Albuquerque Center
Sat 12:35:11 PM 31.7394 -105.7600 97° East 397 457 12,900 1,258 Climbing Albuquerque Center
Sat 12:36:13 PM 31.7233 -105.6292 98° East 405 466 14,200 1,268 Climbing Albuquerque Center
Sat 12:37:14 PM 31.7083 -105.4967 98° East 409 471 15,500 1,268 Climbing Albuquerque Center
Sat 12:38:16 PM 31.6933 -105.3642 98° East 409 471 16,800 1,210 Climbing Albuquerque Center
Sat 12:39:18 PM 31.6772 -105.2297 98° East 412 474 18,000 1,355 Climbing Albuquerque Center
Sat 12:40:20 PM 31.6589 -105.0681 98° East 414 476 19,600 1,403 Climbing Albuquerque Center
Sat 12:41:22 PM 31.6419 -104.9322 98° East 416 479 20,900 1,306 Climbing Albuquerque Center
Sat 12:42:24 PM 31.6250 -104.7944 98° East 420 483 22,300 1,306 Climbing Albuquerque Center
Sat 12:43:26 PM 31.6089 -104.6569 98° East 422 486 23,600 1,258 Climbing Albuquerque Center
Sat 12:44:28 PM 31.5906 -104.5178 99° East 426 490 24,900 1,258 Climbing Albuquerque Center
Sat 12:45:30 PM 31.5744 -104.3806 98° East 425 489 26,200 1,258 Climbing Albuquerque Center
Sat 12:46:32 PM 31.5572 -104.2431 98° East 425 489 27,500 1,366 Climbing Albuquerque Center
Sat 12:47:33 PM 31.5364 -104.0792 98° East 424 488 29,000 1,415 Climbing Albuquerque Center
Sat 12:48:35 PM 31.5186 -103.9447 99° East 419 482 30,400 968 Climbing Albuquerque Center
Sat 12:49:37 PM 31.5019 -103.8078 98° East 422 486 31,000 290 Climbing Albuquerque Center
Sat 12:50:39 PM 31.4817 -103.6647 99° East 444 511 31,000  Level Albuquerque Center
Sat 12:51:41 PM 31.4614 -103.5097 99° East 473 544 31,000  Level Albuquerque Center
Sat 12:52:43 PM 31.4383 -103.3211 98° East 486 559 31,000  Level Albuquerque Center
Sat 12:54:31 PM 31.4025 -103.0692 99° East 489 563 31,000  Level Houston Center
Sat 12:54:47 PM 31.3981 -103.0067 95° East 489 563 31,000  Level Albuquerque Center
Sat 12:55:49 PM 31.3781 -102.8486 98° East 491 565 31,000  Level Albuquerque Center
Sat 12:56:51 PM 31.3575 -102.6914 99° East 491 565 31,000  Level Albuquerque Center
Sat 12:57:52 PM 31.3367 -102.5250 98° East 493 567 31,000  Level Albuquerque Center
Sat 12:58:54 PM 31.3158 -102.3653 99° East 499 574 31,000  Level Albuquerque Center
Sat 12:59:56 PM 31.2958 -102.2086 98° East 495 570 31,000  Level Albuquerque Center
Sat 01:00:58 PM 31.2694 -102.0192 99° East 494 568 31,000  Level Albuquerque Center
Sat 01:02:00 PM 31.2517 -101.8836 99° East 493 567 31,000  Level Albuquerque Center
Sat 01:03:02 PM 31.2269 -101.6936 99° East 494 568 31,000  Level Albuquerque Center
Sat 01:03:48 PM 31.2128 -101.5989 100° East 495 570 31,000  Level Houston Center
Sat 01:04:50 PM 31.1872 -101.4083 99° East 495 570 31,000  Level Houston Center
Sat 01:05:52 PM 31.1647 -101.2489 99° East 496 571 31,000  Level Houston Center
Sat 01:06:54 PM 31.1433 -101.0869 99° East 500 575 31,000  Level Houston Center
Sat 01:07:56 PM 31.1206 -100.9267 99° East 502 578 31,000  Level Houston Center
Sat 01:08:58 PM 31.0972 -100.7697 100° East 494 568 31,000  Level Houston Center
Sat 01:10:00 PM 31.0747 -100.6100 99° East 499 574 31,000  Level Houston Center
Sat 01:11:01 PM 31.0514 -100.4514 100° East 496 571 31,000  Level Houston Center
Sat 01:12:03 PM 31.0286 -100.2931 99° East 494 568 31,000  Level Houston Center
Sat 01:13:05 PM 31.0008 -100.1025 100° East 494 568 31,000  Level Houston Center
Sat 01:14:07 PM 30.9767 -99.9439 100° East 495 570 31,000  Level Houston Center
Sat 01:15:09 PM 30.9522 -99.7875 100° East 491 565 31,000  Level Houston Center
Sat 01:16:11 PM 30.9283 -99.6289 100° East 494 568 31,000 -48 Level Houston Center
Sat 01:17:13 PM 30.9050 -99.4717 100° East 493 567 30,900  Descending Houston Center
Sat 01:18:15 PM 30.8792 -99.3125 101° East 496 571 31,000 48 Climbing Houston Center
Sat 01:19:17 PM 30.8528 -99.1483 101° East 489 563 31,000  Level Houston Center
Sat 01:20:19 PM 30.8447 -98.9894 93° East 487 560 31,000  Level Houston Center
Sat 01:21:20 PM 30.8458 -98.8297 89° East 488 562 31,000  Level Houston Center
Sat 01:22:22 PM 30.8458 -98.6450 90° East 485 558 31,000  Level Houston Center
Sat 01:23:24 PM 30.8453 -98.4853 90° East 489 563 31,000  Level Houston Center
Sat 01:24:26 PM 30.8464 -98.3253 89° East 490 564 31,000 -97 Level Houston Center
Sat 01:25:28 PM 30.8453 -98.1664 90° East 489 563 30,800 -823 Descending Houston Center
Sat 01:26:30 PM 30.8447 -98.0086 90° East 485 558 29,300 -878 Descending Houston Center
Sat 01:27:31 PM 30.8442 -97.8536 90° East 478 550 29,000 -146 Descending Houston Center
Sat 01:28:33 PM 30.8431 -97.6969 90° East 479 551 29,000  Level Houston Center
Sat 01:29:35 PM 30.8419 -97.5408 90° East 480 552 29,000  Level Houston Center
Sat 01:30:37 PM 30.8394 -97.3597 91° East 481 554 29,000 -242 Level Houston Center
Sat 01:31:39 PM 30.8378 -97.2053 91° East 487 560 28,500 -912 Descending Houston Center
Sat 01:32:42 PM 30.8381 -97.0536 90° East 476 548 27,100 -1,403 Descending Houston Center
Sat 01:33:43 PM 30.8367 -96.9000 91° East 471 542 25,600 -1,869 Descending Houston Center
Sat 01:34:44 PM 30.8036 -96.7550 105° East 471 542 23,300 -2,537 Descending Houston Center
Sat 01:35:46 PM 30.7433 -96.5944 114° Southeast 455 524 20,400 -2,613 Descending Houston Center
Sat 01:36:48 PM 30.6906 -96.4636 115° Southeast 445 512 17,900 -2,371 Descending Houston Center
Sat 01:37:50 PM 30.6422 -96.3383 114° Southeast 426 490 15,500 -2,400 Descending Houston Center
Sat 01:38:08 PM 30.6269 -96.3014 116° Southeast 411 473 14,700 -2,400 Descending Houston Center
Sat 01:38:40 PM 30.6008 -96.2389 116° Southeast 391 450 13,500 -2,093 Descending Houston Center
Sat 01:39:34 PM 30.5606 -96.1367 115° Southeast 384 442 11,700 -1,784 Descending Houston Center
Sat 01:39:54 PM 30.5511 -96.1086 111° Southeast 386 444 11,300 -1,672 Descending Houston Center
Sat 01:40:35 PM 30.5150 -96.0206 115° Southeast 383 441 10,000 -1,258 Descending Houston Center
Sat 01:40:56 PM 30.5044 -95.9917 113° Southeast 382 440 10,000  Level Houston Center
Sat 01:41:58 PM 30.4678 -95.8972 114° Southeast 322 371 10,000 -294 Level Houston Center
Sat 01:42:38 PM 30.4269 -95.8514 136° Southeast 285 328 9,500 -774 Descending Houston Center
Sat 01:43:00 PM 30.4078 -95.8497 176° South 290 334 9,200 -1,279 Descending Houston Center
Sat 01:43:39 PM 30.3453 -95.8536 183° South 282 325 8,200 -1,258 Descending Houston Center
Sat 01:44:02 PM 30.3306 -95.8539 181° South 281 323 7,900 -1,377 Descending Houston Center
Sat 01:44:40 PM 30.2711 -95.8453 173° South 269 310 6,800 -1,645 Descending Houston Center
Sat 01:45:04 PM 30.2431 -95.8383 168° South 266 306 6,200 -558 Descending Houston Center
Sat 01:46:06 PM 30.1803 -95.8000 152° Southeast 255 293 6,000 -145 Descending Houston Center
Sat 01:47:08 PM 30.1153 -95.7656 155° Southeast 256 295 5,900 -433 Descending Houston Center
Sat 01:47:43 PM 30.0711 -95.7431 156° South 256 295 5,300 -871 Descending Houston Center
Sat 01:48:10 PM 30.0519 -95.7286 147° Southeast 257 296 5,000 -876 Descending Houston Center
Sat 01:49:12 PM 30.0167 -95.6583 120° Southeast 255 293 4,000 -1,010 Descending Houston Center
Sat 01:49:51 PM 29.9919 -95.6078 119° Southeast 239 275 3,300 -871 Descending Houston Center
Sat 01:50:14 PM 29.9939 -95.5894 83° East 240 276 3,100 -448 Descending Houston Center
Sat 01:50:58 PM 29.9928 -95.5231 91° East 224 258 2,800 -581 Descending Houston Center
Sat 01:51:16 PM 29.9933 -95.5019 88° East 231 266 2,500 -1,000 Descending Houston Center

Login

Don't have an account? Register now (free) for customized features, flight alerts, and more!